sensor_id;sensor_type;location;lat;lon;timestamp;P1;durP1;ratioP1;P2;durP2;ratioP2
11189;SDS011;5651;50.926;4.718;2023-03-03T00:01:05;46.13;;;22.83;;
11189;SDS011;5651;50.926;4.718;2023-03-03T00:03:31;52.65;;;24.35;;
11189;SDS011;5651;50.926;4.718;2023-03-03T00:05:57;48.80;;;23.17;;
11189;SDS011;5651;50.926;4.718;2023-03-03T00:08:23;47.83;;;23.30;;
11189;SDS011;5651;50.926;4.718;2023-03-03T00:10:50;45.78;;;22.40;;
11189;SDS011;5651;50.926;4.718;2023-03-03T00:13:18;46.75;;;23.08;;
11189;SDS011;5651;50.926;4.718;2023-03-03T00:15:46;48.63;;;23.52;;
11189;SDS011;5651;50.926;4.718;2023-03-03T00:18:16;50.28;;;24.20;;
11189;SDS011;5651;50.926;4.718;2023-03-03T00:20:46;55.20;;;25.75;;
11189;SDS011;5651;50.926;4.718;2023-03-03T00:23:27;53.70;;;26.17;;
11189;SDS011;5651;50.926;4.718;2023-03-03T00:26:12;47.20;;;22.65;;
11189;SDS011;5651;50.926;4.718;2023-03-03T00:28:49;49.50;;;23.58;;
11189;SDS011;5651;50.926;4.718;2023-03-03T00:31:20;64.70;;;29.17;;
11189;SDS011;5651;50.926;4.718;2023-03-03T00:36:51;55.47;;;26.03;;
11189;SDS011;5651;50.926;4.718;2023-03-03T00:41:58;48.03;;;22.75;;
11189;SDS011;5651;50.926;4.718;2023-03-03T00:44:40;56.35;;;25.25;;
11189;SDS011;5651;50.926;4.718;2023-03-03T00:47:56;60.30;;;25.50;;
11189;SDS011;5651;50.926;4.718;2023-03-03T00:53:11;58.72;;;27.05;;
11189;SDS011;5651;50.926;4.718;2023-03-03T00:55:41;57.35;;;27.13;;
11189;SDS011;5651;50.926;4.718;2023-03-03T00:58:08;56.20;;;27.10;;
11189;SDS011;5651;50.926;4.718;2023-03-03T01:00:34;54.67;;;24.70;;
11189;SDS011;5651;50.926;4.718;2023-03-03T01:03:02;54.20;;;25.20;;
11189;SDS011;5651;50.926;4.718;2023-03-03T01:05:30;51.10;;;24.65;;
11189;SDS011;5651;50.926;4.718;2023-03-03T01:07:56;53.42;;;24.65;;
11189;SDS011;5651;50.926;4.718;2023-03-03T01:10:22;59.25;;;25.75;;
11189;SDS011;5651;50.926;4.718;2023-03-03T01:12:48;52.83;;;24.15;;
11189;SDS011;5651;50.926;4.718;2023-03-03T01:15:14;61.35;;;25.90;;
11189;SDS011;5651;50.926;4.718;2023-03-03T01:17:41;54.20;;;23.70;;
11189;SDS011;5651;50.926;4.718;2023-03-03T01:20:08;57.97;;;25.08;;
11189;SDS011;5651;50.926;4.718;2023-03-03T01:22:35;57.55;;;25.08;;
11189;SDS011;5651;50.926;4.718;2023-03-03T01:25:00;56.60;;;25.20;;
11189;SDS011;5651;50.926;4.718;2023-03-03T01:27:28;59.42;;;28.88;;
11189;SDS011;5651;50.926;4.718;2023-03-03T01:29:55;55.78;;;23.85;;
11189;SDS011;5651;50.926;4.718;2023-03-03T01:32:22;60.30;;;25.50;;
11189;SDS011;5651;50.926;4.718;2023-03-03T01:34:48;58.03;;;24.75;;
11189;SDS011;5651;50.926;4.718;2023-03-03T01:37:14;52.10;;;24.45;;
11189;SDS011;5651;50.926;4.718;2023-03-03T01:39:40;58.00;;;25.55;;
11189;SDS011;5651;50.926;4.718;2023-03-03T01:42:05;63.80;;;26.10;;
11189;SDS011;5651;50.926;4.718;2023-03-03T01:44:32;55.22;;;26.85;;
11189;SDS011;5651;50.926;4.718;2023-03-03T01:47:16;54.42;;;25.13;;
11189;SDS011;5651;50.926;4.718;2023-03-03T01:49:50;57.85;;;24.48;;
11189;SDS011;5651;50.926;4.718;2023-03-03T01:52:24;59.47;;;24.42;;
11189;SDS011;5651;50.926;4.718;2023-03-03T01:54:56;51.20;;;23.92;;
11189;SDS011;5651;50.926;4.718;2023-03-03T01:57:28;54.83;;;24.25;;
11189;SDS011;5651;50.926;4.718;2023-03-03T01:59:57;60.47;;;25.50;;
11189;SDS011;5651;50.926;4.718;2023-03-03T02:02:26;55.30;;;24.02;;
11189;SDS011;5651;50.926;4.718;2023-03-03T02:04:53;53.33;;;23.40;;
11189;SDS011;5651;50.926;4.718;2023-03-03T02:07:19;60.78;;;26.05;;
11189;SDS011;5651;50.926;4.718;2023-03-03T02:09:56;56.67;;;25.42;;
11189;SDS011;5651;50.926;4.718;2023-03-03T02:12:33;54.85;;;24.95;;
11189;SDS011;5651;50.926;4.718;2023-03-03T02:15:10;58.33;;;25.67;;
11189;SDS011;5651;50.926;4.718;2023-03-03T02:17:41;55.72;;;25.13;;
11189;SDS011;5651;50.926;4.718;2023-03-03T02:22:54;54.05;;;25.55;;
11189;SDS011;5651;50.926;4.718;2023-03-03T02:25:47;53.50;;;23.10;;
11189;SDS011;5651;50.926;4.718;2023-03-03T02:28:21;53.15;;;23.63;;
11189;SDS011;5651;50.926;4.718;2023-03-03T02:30:49;55.72;;;24.27;;
11189;SDS011;5651;50.926;4.718;2023-03-03T02:33:18;54.17;;;25.00;;
11189;SDS011;5651;50.926;4.718;2023-03-03T02:35:44;56.42;;;23.42;;
11189;SDS011;5651;50.926;4.718;2023-03-03T02:46:34;61.58;;;25.75;;
11189;SDS011;5651;50.926;4.718;2023-03-03T02:49:03;59.97;;;26.30;;
11189;SDS011;5651;50.926;4.718;2023-03-03T02:51:30;59.63;;;25.90;;
11189;SDS011;5651;50.926;4.718;2023-03-03T02:53:56;59.40;;;26.55;;
11189;SDS011;5651;50.926;4.718;2023-03-03T02:56:22;60.97;;;25.73;;
11189;SDS011;5651;50.926;4.718;2023-03-03T02:58:48;58.67;;;26.13;;
11189;SDS011;5651;50.926;4.718;2023-03-03T03:01:13;59.53;;;24.55;;
11189;SDS011;5651;50.926;4.718;2023-03-03T03:03:39;58.35;;;25.50;;
11189;SDS011;5651;50.926;4.718;2023-03-03T03:06:05;63.15;;;27.70;;
11189;SDS011;5651;50.926;4.718;2023-03-03T03:08:32;68.30;;;26.73;;
11189;SDS011;5651;50.926;4.718;2023-03-03T03:10:58;67.68;;;26.02;;
11189;SDS011;5651;50.926;4.718;2023-03-03T03:13:24;65.38;;;27.88;;
11189;SDS011;5651;50.926;4.718;2023-03-03T03:15:50;68.28;;;30.02;;
11189;SDS011;5651;50.926;4.718;2023-03-03T03:18:16;76.70;;;29.75;;
11189;SDS011;5651;50.926;4.718;2023-03-03T03:20:43;90.95;;;34.38;;
11189;SDS011;5651;50.926;4.718;2023-03-03T03:23:09;84.32;;;33.40;;
11189;SDS011;5651;50.926;4.718;2023-03-03T03:25:35;96.88;;;34.50;;
11189;SDS011;5651;50.926;4.718;2023-03-03T03:28:13;98.15;;;36.47;;
11189;SDS011;5651;50.926;4.718;2023-03-03T03:30:40;101.78;;;37.42;;
11189;SDS011;5651;50.926;4.718;2023-03-03T03:33:08;96.53;;;37.78;;
11189;SDS011;5651;50.926;4.718;2023-03-03T03:35:35;104.35;;;39.47;;
11189;SDS011;5651;50.926;4.718;2023-03-03T03:38:01;115.03;;;40.80;;
11189;SDS011;5651;50.926;4.718;2023-03-03T03:40:28;102.55;;;39.13;;
11189;SDS011;5651;50.926;4.718;2023-03-03T03:42:54;101.32;;;39.10;;
11189;SDS011;5651;50.926;4.718;2023-03-03T03:45:20;95.47;;;35.85;;
11189;SDS011;5651;50.926;4.718;2023-03-03T03:47:47;100.45;;;39.55;;
11189;SDS011;5651;50.926;4.718;2023-03-03T03:50:13;97.25;;;36.70;;
11189;SDS011;5651;50.926;4.718;2023-03-03T03:52:39;96.93;;;36.53;;
11189;SDS011;5651;50.926;4.718;2023-03-03T03:55:05;99.97;;;35.75;;
11189;SDS011;5651;50.926;4.718;2023-03-03T03:57:30;90.60;;;35.35;;
11189;SDS011;5651;50.926;4.718;2023-03-03T03:59:56;88.10;;;37.78;;
11189;SDS011;5651;50.926;4.718;2023-03-03T04:02:22;83.57;;;32.92;;
11189;SDS011;5651;50.926;4.718;2023-03-03T04:04:48;79.85;;;33.50;;
11189;SDS011;5651;50.926;4.718;2023-03-03T04:07:13;87.50;;;36.13;;
11189;SDS011;5651;50.926;4.718;2023-03-03T04:09:39;88.70;;;37.22;;
11189;SDS011;5651;50.926;4.718;2023-03-03T04:12:05;82.57;;;33.72;;
11189;SDS011;5651;50.926;4.718;2023-03-03T04:14:31;77.00;;;35.05;;
11189;SDS011;5651;50.926;4.718;2023-03-03T04:16:56;84.95;;;33.65;;
11189;SDS011;5651;50.926;4.718;2023-03-03T04:19:22;78.43;;;32.28;;
11189;SDS011;5651;50.926;4.718;2023-03-03T04:21:48;73.35;;;30.73;;
11189;SDS011;5651;50.926;4.718;2023-03-03T04:24:14;76.97;;;32.42;;
11189;SDS011;5651;50.926;4.718;2023-03-03T04:26:39;72.93;;;28.40;;
11189;SDS011;5651;50.926;4.718;2023-03-03T04:29:05;72.15;;;29.88;;
11189;SDS011;5651;50.926;4.718;2023-03-03T04:31:31;75.53;;;29.80;;
11189;SDS011;5651;50.926;4.718;2023-03-03T04:33:57;69.75;;;30.58;;
11189;SDS011;5651;50.926;4.718;2023-03-03T04:36:23;64.68;;;29.23;;
11189;SDS011;5651;50.926;4.718;2023-03-03T04:38:49;65.97;;;27.85;;
11189;SDS011;5651;50.926;4.718;2023-03-03T04:41:15;65.63;;;28.75;;
11189;SDS011;5651;50.926;4.718;2023-03-03T04:43:41;64.43;;;27.10;;
11189;SDS011;5651;50.926;4.718;2023-03-03T04:46:07;66.50;;;29.85;;
11189;SDS011;5651;50.926;4.718;2023-03-03T04:48:32;68.43;;;27.98;;
11189;SDS011;5651;50.926;4.718;2023-03-03T04:50:58;63.83;;;29.25;;
11189;SDS011;5651;50.926;4.718;2023-03-03T04:53:24;68.10;;;29.70;;
11189;SDS011;5651;50.926;4.718;2023-03-03T04:55:52;67.63;;;30.63;;
11189;SDS011;5651;50.926;4.718;2023-03-03T04:58:19;67.60;;;28.63;;
11189;SDS011;5651;50.926;4.718;2023-03-03T05:00:46;64.65;;;27.38;;
11189;SDS011;5651;50.926;4.718;2023-03-03T05:03:12;62.75;;;26.63;;
11189;SDS011;5651;50.926;4.718;2023-03-03T05:05:39;62.22;;;27.15;;
11189;SDS011;5651;50.926;4.718;2023-03-03T05:08:05;65.03;;;26.33;;
11189;SDS011;5651;50.926;4.718;2023-03-03T05:10:31;56.67;;;27.77;;
11189;SDS011;5651;50.926;4.718;2023-03-03T05:12:57;64.60;;;28.65;;
11189;SDS011;5651;50.926;4.718;2023-03-03T05:15:22;61.85;;;29.35;;
11189;SDS011;5651;50.926;4.718;2023-03-03T05:17:48;60.22;;;27.42;;
11189;SDS011;5651;50.926;4.718;2023-03-03T05:20:15;60.75;;;26.05;;
11189;SDS011;5651;50.926;4.718;2023-03-03T05:22:40;57.45;;;25.83;;
11189;SDS011;5651;50.926;4.718;2023-03-03T05:25:06;62.42;;;27.35;;
11189;SDS011;5651;50.926;4.718;2023-03-03T05:27:34;67.05;;;28.38;;
11189;SDS011;5651;50.926;4.718;2023-03-03T05:30:00;62.88;;;27.63;;
11189;SDS011;5651;50.926;4.718;2023-03-03T05:32:26;61.28;;;28.58;;
11189;SDS011;5651;50.926;4.718;2023-03-03T05:34:52;57.25;;;25.73;;
11189;SDS011;5651;50.926;4.718;2023-03-03T05:37:18;61.20;;;27.40;;
11189;SDS011;5651;50.926;4.718;2023-03-03T05:39:44;64.18;;;29.83;;
11189;SDS011;5651;50.926;4.718;2023-03-03T05:42:10;64.53;;;27.65;;
11189;SDS011;5651;50.926;4.718;2023-03-03T05:44:37;63.85;;;29.73;;
11189;SDS011;5651;50.926;4.718;2023-03-03T05:47:03;64.18;;;27.75;;
11189;SDS011;5651;50.926;4.718;2023-03-03T05:49:29;61.78;;;27.95;;
11189;SDS011;5651;50.926;4.718;2023-03-03T05:51:55;55.78;;;25.80;;
11189;SDS011;5651;50.926;4.718;2023-03-03T05:54:20;54.50;;;25.90;;
11189;SDS011;5651;50.926;4.718;2023-03-03T05:56:46;60.50;;;27.38;;
11189;SDS011;5651;50.926;4.718;2023-03-03T05:59:12;61.38;;;27.55;;
11189;SDS011;5651;50.926;4.718;2023-03-03T06:01:38;56.53;;;26.88;;
11189;SDS011;5651;50.926;4.718;2023-03-03T06:04:03;60.78;;;27.55;;
11189;SDS011;5651;50.926;4.718;2023-03-03T06:06:29;56.30;;;24.88;;
11189;SDS011;5651;50.926;4.718;2023-03-03T06:08:55;60.10;;;28.65;;
11189;SDS011;5651;50.926;4.718;2023-03-03T06:11:20;61.05;;;26.92;;
11189;SDS011;5651;50.926;4.718;2023-03-03T06:13:46;54.83;;;25.52;;
11189;SDS011;5651;50.926;4.718;2023-03-03T06:16:12;53.08;;;25.08;;
11189;SDS011;5651;50.926;4.718;2023-03-03T06:18:38;54.47;;;22.75;;
11189;SDS011;5651;50.926;4.718;2023-03-03T06:21:03;55.97;;;25.50;;
11189;SDS011;5651;50.926;4.718;2023-03-03T06:23:29;60.13;;;27.27;;
11189;SDS011;5651;50.926;4.718;2023-03-03T06:25:55;60.63;;;26.75;;
11189;SDS011;5651;50.926;4.718;2023-03-03T06:28:22;55.33;;;23.67;;
11189;SDS011;5651;50.926;4.718;2023-03-03T06:30:52;56.17;;;25.65;;
11189;SDS011;5651;50.926;4.718;2023-03-03T06:33:29;61.08;;;25.98;;
11189;SDS011;5651;50.926;4.718;2023-03-03T06:35:55;57.45;;;25.30;;
11189;SDS011;5651;50.926;4.718;2023-03-03T06:38:20;62.47;;;26.17;;
11189;SDS011;5651;50.926;4.718;2023-03-03T06:40:46;61.50;;;27.10;;
11189;SDS011;5651;50.926;4.718;2023-03-03T06:43:12;57.92;;;26.58;;
11189;SDS011;5651;50.926;4.718;2023-03-03T06:45:38;62.45;;;27.20;;
11189;SDS011;5651;50.926;4.718;2023-03-03T06:48:04;66.22;;;29.13;;
11189;SDS011;5651;50.926;4.718;2023-03-03T06:50:30;58.00;;;27.13;;
11189;SDS011;5651;50.926;4.718;2023-03-03T06:53:01;60.53;;;27.55;;
11189;SDS011;5651;50.926;4.718;2023-03-03T06:55:32;64.95;;;28.20;;
11189;SDS011;5651;50.926;4.718;2023-03-03T06:57:58;63.85;;;27.55;;
11189;SDS011;5651;50.926;4.718;2023-03-03T07:00:25;62.63;;;27.73;;
11189;SDS011;5651;50.926;4.718;2023-03-03T07:03:07;63.38;;;27.65;;
11189;SDS011;5651;50.926;4.718;2023-03-03T07:05:39;55.63;;;24.40;;
11189;SDS011;5651;50.926;4.718;2023-03-03T07:08:05;58.10;;;25.63;;
11189;SDS011;5651;50.926;4.718;2023-03-03T07:10:39;57.83;;;25.77;;
11189;SDS011;5651;50.926;4.718;2023-03-03T07:13:26;56.30;;;25.60;;
11189;SDS011;5651;50.926;4.718;2023-03-03T07:15:52;56.97;;;25.00;;
11189;SDS011;5651;50.926;4.718;2023-03-03T07:23:44;52.58;;;23.80;;
11189;SDS011;5651;50.926;4.718;2023-03-03T07:26:12;56.60;;;23.38;;
11189;SDS011;5651;50.926;4.718;2023-03-03T07:28:53;59.72;;;25.35;;
11189;SDS011;5651;50.926;4.718;2023-03-03T07:34:26;59.63;;;27.35;;
11189;SDS011;5651;50.926;4.718;2023-03-03T07:36:56;53.15;;;23.42;;
11189;SDS011;5651;50.926;4.718;2023-03-03T07:39:36;57.72;;;24.60;;
11189;SDS011;5651;50.926;4.718;2023-03-03T07:44:55;56.40;;;24.30;;
11189;SDS011;5651;50.926;4.718;2023-03-03T07:49:56;51.22;;;23.65;;
11189;SDS011;5651;50.926;4.718;2023-03-03T07:54:58;46.92;;;23.08;;
11189;SDS011;5651;50.926;4.718;2023-03-03T07:57:27;51.65;;;22.45;;
11189;SDS011;5651;50.926;4.718;2023-03-03T08:00:00;47.72;;;22.48;;
11189;SDS011;5651;50.926;4.718;2023-03-03T08:05:14;50.72;;;24.40;;
11189;SDS011;5651;50.926;4.718;2023-03-03T08:07:45;54.55;;;24.13;;
11189;SDS011;5651;50.926;4.718;2023-03-03T08:10:28;47.08;;;22.55;;
11189;SDS011;5651;50.926;4.718;2023-03-03T08:13:00;50.83;;;23.38;;
11189;SDS011;5651;50.926;4.718;2023-03-03T08:15:35;41.50;;;20.70;;
11189;SDS011;5651;50.926;4.718;2023-03-03T08:18:01;56.50;;;23.27;;
11189;SDS011;5651;50.926;4.718;2023-03-03T08:23:03;51.13;;;21.92;;
11189;SDS011;5651;50.926;4.718;2023-03-03T08:25:29;49.60;;;22.90;;
11189;SDS011;5651;50.926;4.718;2023-03-03T08:27:55;52.10;;;24.15;;
11189;SDS011;5651;50.926;4.718;2023-03-03T08:30:21;55.35;;;22.73;;
11189;SDS011;5651;50.926;4.718;2023-03-03T08:32:46;49.03;;;23.05;;
11189;SDS011;5651;50.926;4.718;2023-03-03T08:35:12;53.65;;;23.50;;
11189;SDS011;5651;50.926;4.718;2023-03-03T08:37:38;49.00;;;22.17;;
11189;SDS011;5651;50.926;4.718;2023-03-03T08:40:04;51.00;;;23.40;;
11189;SDS011;5651;50.926;4.718;2023-03-03T08:42:30;49.35;;;23.17;;
11189;SDS011;5651;50.926;4.718;2023-03-03T08:44:55;52.03;;;23.83;;
11189;SDS011;5651;50.926;4.718;2023-03-03T08:47:21;45.97;;;20.35;;
11189;SDS011;5651;50.926;4.718;2023-03-03T08:49:47;49.80;;;21.25;;
11189;SDS011;5651;50.926;4.718;2023-03-03T08:52:13;46.15;;;20.88;;
11189;SDS011;5651;50.926;4.718;2023-03-03T08:54:38;43.95;;;20.40;;
11189;SDS011;5651;50.926;4.718;2023-03-03T08:57:04;42.10;;;19.65;;
11189;SDS011;5651;50.926;4.718;2023-03-03T08:59:30;46.28;;;20.10;;
11189;SDS011;5651;50.926;4.718;2023-03-03T09:01:55;46.45;;;20.02;;
11189;SDS011;5651;50.926;4.718;2023-03-03T09:04:21;48.38;;;21.45;;
11189;SDS011;5651;50.926;4.718;2023-03-03T09:06:47;43.55;;;19.17;;
11189;SDS011;5651;50.926;4.718;2023-03-03T09:09:13;51.17;;;20.38;;
11189;SDS011;5651;50.926;4.718;2023-03-03T09:11:39;44.97;;;20.23;;
11189;SDS011;5651;50.926;4.718;2023-03-03T09:14:06;45.30;;;19.08;;
11189;SDS011;5651;50.926;4.718;2023-03-03T09:16:37;52.40;;;22.48;;
11189;SDS011;5651;50.926;4.718;2023-03-03T09:19:18;46.20;;;20.25;;
11189;SDS011;5651;50.926;4.718;2023-03-03T09:21:55;44.92;;;20.15;;
11189;SDS011;5651;50.926;4.718;2023-03-03T09:24:24;51.42;;;20.73;;
11189;SDS011;5651;50.926;4.718;2023-03-03T09:27:00;48.20;;;19.95;;
11189;SDS011;5651;50.926;4.718;2023-03-03T09:29:30;49.33;;;20.85;;
11189;SDS011;5651;50.926;4.718;2023-03-03T09:34:46;52.00;;;23.08;;
11189;SDS011;5651;50.926;4.718;2023-03-03T09:37:22;49.42;;;22.33;;
11189;SDS011;5651;50.926;4.718;2023-03-03T09:39:52;46.30;;;19.85;;
11189;SDS011;5651;50.926;4.718;2023-03-03T09:53:14;50.03;;;20.45;;
11189;SDS011;5651;50.926;4.718;2023-03-03T10:23:45;50.30;;;21.02;;
11189;SDS011;5651;50.926;4.718;2023-03-03T10:26:25;50.78;;;20.48;;
11189;SDS011;5651;50.926;4.718;2023-03-03T10:29:07;46.50;;;19.10;;
11189;SDS011;5651;50.926;4.718;2023-03-03T10:31:48;49.38;;;19.73;;
11189;SDS011;5651;50.926;4.718;2023-03-03T10:34:45;47.80;;;20.65;;
11189;SDS011;5651;50.926;4.718;2023-03-03T11:05:50;43.97;;;19.92;;
11189;SDS011;5651;50.926;4.718;2023-03-03T11:14:44;38.03;;;17.50;;
11189;SDS011;5651;50.926;4.718;2023-03-03T11:23:49;39.42;;;17.13;;
11189;SDS011;5651;50.926;4.718;2023-03-03T11:37:07;35.85;;;15.40;;
11189;SDS011;5651;50.926;4.718;2023-03-03T11:39:36;37.28;;;17.75;;
11189;SDS011;5651;50.926;4.718;2023-03-03T11:44:43;36.75;;;17.77;;
11189;SDS011;5651;50.926;4.718;2023-03-03T11:50:19;33.95;;;15.82;;
11189;SDS011;5651;50.926;4.718;2023-03-03T11:55:36;33.92;;;15.90;;
11189;SDS011;5651;50.926;4.718;2023-03-03T12:00:44;34.50;;;15.80;;
11189;SDS011;5651;50.926;4.718;2023-03-03T12:03:28;31.98;;;15.18;;
11189;SDS011;5651;50.926;4.718;2023-03-03T12:06:07;32.92;;;15.45;;
11189;SDS011;5651;50.926;4.718;2023-03-03T12:11:18;33.53;;;16.27;;
11189;SDS011;5651;50.926;4.718;2023-03-03T12:14:11;31.95;;;16.48;;
11189;SDS011;5651;50.926;4.718;2023-03-03T12:22:34;31.10;;;15.77;;
11189;SDS011;5651;50.926;4.718;2023-03-03T12:31:04;34.15;;;16.25;;
11189;SDS011;5651;50.926;4.718;2023-03-03T12:33:57;29.77;;;14.77;;
11189;SDS011;5651;50.926;4.718;2023-03-03T12:38:59;29.77;;;14.02;;
11189;SDS011;5651;50.926;4.718;2023-03-03T12:52:55;35.38;;;15.85;;
11189;SDS011;5651;50.926;4.718;2023-03-03T12:55:52;28.52;;;14.43;;
11189;SDS011;5651;50.926;4.718;2023-03-03T13:03:43;29.85;;;14.02;;
11189;SDS011;5651;50.926;4.718;2023-03-03T13:11:35;38.45;;;16.95;;
11189;SDS011;5651;50.926;4.718;2023-03-03T13:17:29;25.77;;;13.88;;
11189;SDS011;5651;50.926;4.718;2023-03-03T13:22:45;31.10;;;15.10;;
11189;SDS011;5651;50.926;4.718;2023-03-03T13:28:39;33.60;;;14.85;;
11189;SDS011;5651;50.926;4.718;2023-03-03T13:31:22;31.65;;;15.20;;
11189;SDS011;5651;50.926;4.718;2023-03-03T13:33:56;28.27;;;16.05;;
11189;SDS011;5651;50.926;4.718;2023-03-03T13:36:34;29.05;;;15.00;;
11189;SDS011;5651;50.926;4.718;2023-03-03T13:39:21;25.98;;;14.27;;
11189;SDS011;5651;50.926;4.718;2023-03-03T13:41:52;26.58;;;14.75;;
11189;SDS011;5651;50.926;4.718;2023-03-03T13:44:48;25.92;;;15.05;;
11189;SDS011;5651;50.926;4.718;2023-03-03T13:47:29;26.20;;;13.93;;
11189;SDS011;5651;50.926;4.718;2023-03-03T14:07:13;26.17;;;14.05;;
11189;SDS011;5651;50.926;4.718;2023-03-03T14:12:16;23.27;;;14.15;;
11189;SDS011;5651;50.926;4.718;2023-03-03T14:20:31;21.77;;;14.00;;
11189;SDS011;5651;50.926;4.718;2023-03-03T14:23:03;23.20;;;13.60;;
11189;SDS011;5651;50.926;4.718;2023-03-03T14:25:52;23.13;;;13.63;;
11189;SDS011;5651;50.926;4.718;2023-03-03T14:30:48;23.52;;;14.55;;
11189;SDS011;5651;50.926;4.718;2023-03-03T14:33:17;23.80;;;13.82;;
11189;SDS011;5651;50.926;4.718;2023-03-03T14:38:24;20.25;;;12.52;;
11189;SDS011;5651;50.926;4.718;2023-03-03T14:43:37;21.70;;;12.57;;
11189;SDS011;5651;50.926;4.718;2023-03-03T14:48:57;22.38;;;13.30;;
11189;SDS011;5651;50.926;4.718;2023-03-03T14:51:59;20.75;;;13.15;;
11189;SDS011;5651;50.926;4.718;2023-03-03T14:54:29;21.40;;;12.30;;
11189;SDS011;5651;50.926;4.718;2023-03-03T14:57:21;20.00;;;12.35;;
11189;SDS011;5651;50.926;4.718;2023-03-03T15:02:37;21.38;;;11.82;;
11189;SDS011;5651;50.926;4.718;2023-03-03T15:05:25;20.88;;;13.40;;
11189;SDS011;5651;50.926;4.718;2023-03-03T15:10:32;19.15;;;11.60;;
11189;SDS011;5651;50.926;4.718;2023-03-03T15:13:01;20.10;;;11.88;;
11189;SDS011;5651;50.926;4.718;2023-03-03T15:18:14;18.70;;;10.88;;
11189;SDS011;5651;50.926;4.718;2023-03-03T15:20:41;17.75;;;11.23;;
11189;SDS011;5651;50.926;4.718;2023-03-03T15:28:13;16.70;;;11.32;;
11189;SDS011;5651;50.926;4.718;2023-03-03T15:31:15;18.20;;;10.65;;
11189;SDS011;5651;50.926;4.718;2023-03-03T15:41:44;18.63;;;11.07;;
11189;SDS011;5651;50.926;4.718;2023-03-03T16:01:00;21.33;;;12.93;;
11189;SDS011;5651;50.926;4.718;2023-03-03T16:03:37;15.10;;;9.77;;
11189;SDS011;5651;50.926;4.718;2023-03-03T16:06:33;15.45;;;9.73;;
11189;SDS011;5651;50.926;4.718;2023-03-03T16:11:53;15.90;;;9.82;;
11189;SDS011;5651;50.926;4.718;2023-03-03T16:20:57;14.98;;;8.82;;
11189;SDS011;5651;50.926;4.718;2023-03-03T16:31:53;17.35;;;10.73;;
11189;SDS011;5651;50.926;4.718;2023-03-03T16:34:40;14.70;;;9.63;;
11189;SDS011;5651;50.926;4.718;2023-03-03T16:37:32;14.52;;;9.38;;
11189;SDS011;5651;50.926;4.718;2023-03-03T16:40:21;15.73;;;9.18;;
11189;SDS011;5651;50.926;4.718;2023-03-03T16:42:52;15.95;;;9.10;;
11189;SDS011;5651;50.926;4.718;2023-03-03T16:45:28;17.13;;;9.45;;
11189;SDS011;5651;50.926;4.718;2023-03-03T16:56:17;15.50;;;8.68;;
11189;SDS011;5651;50.926;4.718;2023-03-03T16:59:11;14.60;;;8.90;;
11189;SDS011;5651;50.926;4.718;2023-03-03T17:01:58;16.20;;;8.75;;
11189;SDS011;5651;50.926;4.718;2023-03-03T17:05:03;15.32;;;8.63;;
11189;SDS011;5651;50.926;4.718;2023-03-03T17:07:41;14.40;;;9.23;;
11189;SDS011;5651;50.926;4.718;2023-03-03T17:21:34;22.63;;;12.02;;
11189;SDS011;5651;50.926;4.718;2023-03-03T17:24:31;19.50;;;9.48;;
11189;SDS011;5651;50.926;4.718;2023-03-03T17:33:22;14.57;;;8.88;;
11189;SDS011;5651;50.926;4.718;2023-03-03T17:35:59;15.98;;;8.20;;
11189;SDS011;5651;50.926;4.718;2023-03-03T17:44:19;15.48;;;8.55;;
11189;SDS011;5651;50.926;4.718;2023-03-03T17:46:49;17.67;;;9.73;;
11189;SDS011;5651;50.926;4.718;2023-03-03T18:05:27;17.42;;;9.75;;
11189;SDS011;5651;50.926;4.718;2023-03-03T18:14:10;16.73;;;8.68;;
11189;SDS011;5651;50.926;4.718;2023-03-03T18:22:20;15.88;;;9.38;;
11189;SDS011;5651;50.926;4.718;2023-03-03T18:27:39;17.00;;;9.15;;
11189;SDS011;5651;50.926;4.718;2023-03-03T18:40:49;15.93;;;9.40;;
11189;SDS011;5651;50.926;4.718;2023-03-03T18:43:40;17.25;;;11.25;;
11189;SDS011;5651;50.926;4.718;2023-03-03T18:59:08;16.42;;;9.98;;
11189;SDS011;5651;50.926;4.718;2023-03-03T19:01:38;18.27;;;12.23;;
11189;SDS011;5651;50.926;4.718;2023-03-03T19:09:10;17.10;;;10.23;;
11189;SDS011;5651;50.926;4.718;2023-03-03T19:11:49;17.05;;;9.75;;
11189;SDS011;5651;50.926;4.718;2023-03-03T19:14:28;20.08;;;11.02;;
11189;SDS011;5651;50.926;4.718;2023-03-03T19:16:57;18.52;;;11.43;;
11189;SDS011;5651;50.926;4.718;2023-03-03T19:22:52;29.25;;;12.35;;
11189;SDS011;5651;50.926;4.718;2023-03-03T19:25:28;19.50;;;11.63;;
11189;SDS011;5651;50.926;4.718;2023-03-03T19:30:57;16.00;;;10.80;;
11189;SDS011;5651;50.926;4.718;2023-03-03T19:33:29;18.85;;;11.35;;
11189;SDS011;5651;50.926;4.718;2023-03-03T19:44:34;18.80;;;10.88;;
11189;SDS011;5651;50.926;4.718;2023-03-03T19:47:05;18.60;;;11.90;;
11189;SDS011;5651;50.926;4.718;2023-03-03T19:52:36;21.63;;;12.05;;
11189;SDS011;5651;50.926;4.718;2023-03-03T19:57:46;16.27;;;11.25;;
11189;SDS011;5651;50.926;4.718;2023-03-03T20:00:23;17.50;;;11.70;;
11189;SDS011;5651;50.926;4.718;2023-03-03T20:03:20;18.48;;;12.07;;
11189;SDS011;5651;50.926;4.718;2023-03-03T20:08:32;19.15;;;11.55;;
11189;SDS011;5651;50.926;4.718;2023-03-03T20:11:17;17.42;;;11.75;;
11189;SDS011;5651;50.926;4.718;2023-03-03T20:16:44;19.02;;;11.07;;
11189;SDS011;5651;50.926;4.718;2023-03-03T20:22:22;19.02;;;11.40;;
11189;SDS011;5651;50.926;4.718;2023-03-03T20:32:58;15.63;;;10.80;;
11189;SDS011;5651;50.926;4.718;2023-03-03T20:38:26;14.10;;;10.27;;
11189;SDS011;5651;50.926;4.718;2023-03-03T20:44:16;14.80;;;10.10;;
11189;SDS011;5651;50.926;4.718;2023-03-03T20:46:57;13.35;;;11.43;;
11189;SDS011;5651;50.926;4.718;2023-03-03T20:52:16;16.02;;;11.70;;
11189;SDS011;5651;50.926;4.718;2023-03-03T20:57:49;16.02;;;11.95;;
11189;SDS011;5651;50.926;4.718;2023-03-03T21:00:26;15.95;;;12.60;;
11189;SDS011;5651;50.926;4.718;2023-03-03T21:03:09;14.38;;;11.23;;
11189;SDS011;5651;50.926;4.718;2023-03-03T21:05:58;17.67;;;11.60;;
11189;SDS011;5651;50.926;4.718;2023-03-03T21:13:54;17.55;;;12.57;;
11189;SDS011;5651;50.926;4.718;2023-03-03T21:21:21;15.02;;;12.10;;
11189;SDS011;5651;50.926;4.718;2023-03-03T21:23:47;15.77;;;12.75;;
11189;SDS011;5651;50.926;4.718;2023-03-03T21:26:22;14.52;;;12.50;;
11189;SDS011;5651;50.926;4.718;2023-03-03T21:29:23;16.05;;;12.98;;
11189;SDS011;5651;50.926;4.718;2023-03-03T21:31:54;20.02;;;13.90;;
11189;SDS011;5651;50.926;4.718;2023-03-03T21:34:23;15.38;;;12.60;;
11189;SDS011;5651;50.926;4.718;2023-03-03T21:37:01;16.52;;;13.40;;
11189;SDS011;5651;50.926;4.718;2023-03-03T21:39:35;16.88;;;13.50;;
11189;SDS011;5651;50.926;4.718;2023-03-03T21:42:04;16.05;;;13.85;;
11189;SDS011;5651;50.926;4.718;2023-03-03T21:44:39;18.67;;;14.40;;
11189;SDS011;5651;50.926;4.718;2023-03-03T21:47:07;17.35;;;14.10;;
11189;SDS011;5651;50.926;4.718;2023-03-03T21:49:34;19.27;;;14.52;;
11189;SDS011;5651;50.926;4.718;2023-03-03T21:52:04;18.45;;;14.73;;
11189;SDS011;5651;50.926;4.718;2023-03-03T21:54:30;19.40;;;14.18;;
11189;SDS011;5651;50.926;4.718;2023-03-03T21:56:55;19.63;;;13.90;;
11189;SDS011;5651;50.926;4.718;2023-03-03T21:59:21;19.02;;;14.23;;
11189;SDS011;5651;50.926;4.718;2023-03-03T22:01:47;17.35;;;14.07;;
11189;SDS011;5651;50.926;4.718;2023-03-03T22:04:13;18.95;;;14.27;;
11189;SDS011;5651;50.926;4.718;2023-03-03T22:06:39;19.92;;;13.80;;
11189;SDS011;5651;50.926;4.718;2023-03-03T22:09:05;22.00;;;15.02;;
11189;SDS011;5651;50.926;4.718;2023-03-03T22:11:31;19.80;;;15.00;;
11189;SDS011;5651;50.926;4.718;2023-03-03T22:13:58;20.35;;;14.13;;
11189;SDS011;5651;50.926;4.718;2023-03-03T22:16:25;16.52;;;12.93;;